Oakley, Idaho
Current Conditions -  °F | °C
As of 8:53 PM on Wednesday 26 Nov 2014 (Local Time) from KBYI Reporting Station
Clear Clear  
Wind Chill: 41°   Ceiling: Unl
Heat Index: 47°   Visibility: 10mi
Dew Point: 32°   Wind: 14mph
Humidity: 56%   Direction: 210°SSW
Pressure: 30.25"   Gusts: NA
Location:  42.24°N, 113.88°W
Report Text: KBYI 270353Z AUTO 21012KT 10SM CLR 08/00 A3025 RMK AO2 SLP238 T00830000
Loading
Personal Weather Stations






























Interactive Weather Map New forecast layout! Learn more

10-Day Weather Forecast

Advertisements
Track Severe Weather on mobile